Data for 07/26/2013

Time Sea-Level Adjusted Pressure Absolute Pressure Temperature Relative Humidity Dew Point   
(mb) (inHg) (mb) (inHg) (C) (F) (%) (C) (F)
00:05 1024 30.24 853 25.19 18.1 64.5 57 9.5 49.1
00:10 1024 30.24 853 25.19 18 64.4 57 9.6 49.3
00:15 1024 30.24 853 25.19 17.9 64.3 58 9.6 49.3
00:20 1024 30.24 853 25.19 17.8 64.1 58 9.6 49.4
00:25 1024 30.24 853 25.19 17.8 64 59 9.7 49.5
00:30 1024 30.24 853 25.19 17.7 63.8 59 9.7 49.5
00:35 1024 30.24 853 25.19 17.6 63.6 60 9.8 49.7
00:40 1024 30.24 853 25.19 17.4 63.4 61 9.8 49.7
00:45 1024 30.24 853 25.19 17.3 63.2 61 9.9 49.8
00:50 1024 30.24 853 25.19 17.2 62.9 62 9.9 49.8
00:55 1024 30.24 853 25.19 17.1 62.7 62 9.9 49.9
01:00 1024 30.24 853 25.19 17 62.6 63 9.9 49.9
01:05 1024 30.24 853 25.19 16.9 62.4 63 9.9 49.9
01:10 1024 30.24 853 25.19 16.8 62.2 64 10 50
01:15 1024 30.24 853 25.19 16.7 62.1 64 10 50
01:20 1024 30.24 853 25.19 16.6 61.9 65 10 50.1
01:25 1024 30.24 853 25.19 16.5 61.7 65 10 50
01:30 1024 30.24 853 25.19 16.5 61.6 65 10 50.1
01:35 1024 30.24 853 25.19 16.4 61.5 66 10 50.1
01:40 1024 30.24 853 25.19 16.3 61.3 66 10 50.1
01:45 1024 30.24 853 25.19 16.2 61.1 67 10.1 50.1
01:50 1024 30.24 853 25.19 16.1 61 67 10.1 50.1
01:55 1024 30.24 853 25.19 16 60.8 67 10 50.1
02:00 1024 30.24 853 25.19 16 60.7 68 10 50.1
02:05 1024 30.24 853 25.19 15.9 60.5 68 10.1 50.1
02:10 1024 30.24 853 25.19 15.8 60.4 69 10.1 50.1
02:15 1024 30.24 853 25.19 15.7 60.2 69 10 50.1
02:20 1024 30.24 853 25.19 15.6 60 69 10 50
02:25 1024 30.24 853 25.19 15.5 59.9 69 10 50
02:30 1024 30.24 853 25.19 15.3 59.6 70 10 50
02:35 1024 30.24 853 25.19 15.2 59.4 70 9.9 49.8
02:40 1024 30.24 853 25.19 15.2 59.3 71 9.9 49.8
02:45 1024 30.24 853 25.19 15.1 59.1 71 9.9 49.8
02:50 1024 30.24 853 25.19 15 59 71 9.8 49.7
02:55 1024 30.24 853 25.19 14.9 58.9 71 9.8 49.6
03:00 1024 30.24 853 25.19 14.9 58.8 71 9.7 49.5
03:05 1024 30.24 853 25.19 14.8 58.7 71 9.7 49.5
03:10 1024 30.24 853 25.19 14.8 58.6 71 9.7 49.4
03:15 1024 30.24 853 25.19 14.7 58.5 71 9.6 49.4
03:20 1024 30.24 853 25.19 14.7 58.4 72 9.7 49.4
03:25 1024 30.24 853 25.19 14.6 58.3 72 9.6 49.2
03:30 1024 30.24 853 25.19 14.6 58.2 72 9.6 49.2
03:35 1024 30.24 853 25.19 14.5 58.1 72 9.6 49.2
03:40 1024 30.24 853 25.19 14.4 57.8 72 9.5 49.1
03:45 1024 30.24 853 25.19 14.3 57.8 72 9.4 48.9
03:50 1024 30.24 853 25.19 14.3 57.7 72 9.4 48.9
03:55 1024 30.24 853 25.19 14.2 57.5 72 9.3 48.7
04:00 1024 30.24 853 25.19 14.2 57.5 72 9.3 48.7
04:05 1024 30.24 853 25.19 14 57.2 72 9.2 48.5
04:10 1024 30.24 853 25.19 14 57.2 72 9.1 48.4
04:15 1024 30.24 853 25.19 14 57.2 73 9.2 48.5
04:20 1024 30.24 853 25.19 13.9 56.9 73 9 48.3
04:25 1024 30.24 853 25.19 13.8 56.8 73 9.1 48.3
04:30 1024 30.24 853 25.19 13.7 56.6 73 9 48.3
04:35 1024 30.24 853 25.19 13.7 56.7 73 9.1 48.3
04:40 1024 30.24 853 25.19 13.7 56.6 73 9 48.3
04:45 1024 30.24 853 25.19 13.7 56.6 73 9 48.2
04:50 1024 30.24 853 25.19 13.7 56.7 73 9.1 48.3
04:55 1024 30.24 853 25.19 13.7 56.6 74 9.1 48.3
05:00 1024 30.24 853 25.19 13.6 56.5 74 9.1 48.4
05:05 1024 30.24 853 25.19 13.6 56.5 74 9 48.3
05:10 1024 30.24 853 25.19 13.6 56.4 74 9.1 48.3
05:15 1024 30.24 854 25.22 13.5 56.3 74 9 48.2
05:20 1024 30.24 854 25.22 13.5 56.2 74 9 48.3
05:25 1025 30.27 854 25.22 13.4 56.2 74 9 48.2
05:30 1025 30.27 854 25.22 13.5 56.3 74 9 48.2
05:35 1025 30.27 854 25.22 13.5 56.4 74 9.1 48.3
05:40 1025 30.27 854 25.22 13.5 56.3 74 9 48.2
05:45 1025 30.27 854 25.22 13.6 56.4 74 9 48.3
05:50 1025 30.27 854 25.22 13.6 56.4 74 9 48.2
05:55 1025 30.27 854 25.22 13.7 56.6 73 9 48.2
06:00 1025 30.27 854 25.22 13.8 56.9 73 9 48.2
06:05 1025 30.27 854 25.22 13.9 57 72 9 48.2
06:10 1025 30.27 854 25.22 14 57.2 71 8.9 48
06:15 1025 30.27 854 25.22 14.1 57.5 71 9 48.3
06:20 1025 30.27 855 25.25 14.3 57.7 70 9 48.2
06:25 1025 30.27 855 25.25 14.5 58 70 9 48.2
06:30 1025 30.27 855 25.25 14.6 58.2 69 9 48.1
06:35 1025 30.27 855 25.25 14.7 58.5 68 9 48.3
06:40 1025 30.27 855 25.25 14.8 58.6 68 9.1 48.3
06:45 1025 30.27 854 25.22 15.1 59.2 67 9 48.2
06:50 1025 30.27 854 25.22 15.4 59.7 66 9.2 48.6
06:55 1025 30.27 855 25.25 15.4 59.8 66 9.3 48.7
07:00 1025 30.27 855 25.25 15.6 60.1 66 9.3 48.7
07:05 1025 30.27 855 25.25 15.8 60.4 65 9.3 48.7
07:10 1025 30.27 855 25.25 16 60.8 64 9.4 48.9
07:15 1025 30.27 855 25.25 16.2 61.2 64 9.4 48.9
07:20 1025 30.27 855 25.25 16.5 61.7 62 9.3 48.8
07:25 1025 30.27 855 25.25 16.8 62.2 62 9.5 49.2
07:30 1025 30.27 855 25.25 17.2 63 60 9.5 49
07:35 1025 30.27 855 25.25 17.5 63.5 59 9.5 49.2
07:40 1025 30.27 855 25.25 17.5 63.5 59 9.5 49
07:45 1025 30.27 855 25.25 17.9 64.1 58 9.5 49.1
07:50 1025 30.27 855 25.25 17.8 64.1 58 9.4 49
07:55 1025 30.27 855 25.25 18.4 65 56 9.6 49.2
08:00 1025 30.27 855 25.25 18.5 65.2 55 9.4 48.9
08:05 1025 30.27 855 25.25 18.8 65.8 54 9.4 49
08:10 1025 30.27 855 25.25 18.9 66 53 9.2 48.5
08:15 1025 30.27 855 25.25 18.9 66.1 53 9.4 48.9
08:20 1025 30.27 855 25.25 19.4 67 51 9.3 48.7
08:25 1025 30.27 855 25.25 19.8 67.6 50 9.1 48.3
08:30 1025 30.27 854 25.22 20 68 49 9 48.2
08:35 1025 30.27 854 25.22 20.5 68.8 48 9.1 48.3
08:40 1025 30.27 854 25.22 20.8 69.4 48 9.5 49
08:45 1025 30.27 854 25.22 21.3 70.3 44 8.9 48
08:50 1025 30.27 854 25.22 21.5 70.8 44 9.1 48.3
08:55 1025 30.27 854 25.22 22 71.5 43 8.9 48
09:00 1025 30.27 854 25.22 22.3 72.2 43 9.2 48.6
09:05 1025 30.27 854 25.22 22.7 72.9 44 10.2 50.3
09:10 1025 30.27 854 25.22 22.2 71.9 45 10 50
09:15 1025 30.27 854 25.22 22.4 72.3 46 10.4 50.7
09:20 1025 30.27 854 25.22 22.3 72.2 44 9.6 49.3
09:25 1025 30.27 854 25.22 22.7 72.8 44 10 49.9
09:30 1025 30.27 854 25.22 22.4 72.4 43 9.5 49.1
09:35 1025 30.27 854 25.22 22.8 73.1 42 9.4 48.9
09:40 1025 30.27 854 25.22 23.1 73.5 40 9 48.1
09:45 1025 30.27 854 25.22 23.6 74.4 41 9.8 49.7
09:50 1025 30.27 854 25.22 23.1 73.7 40 8.8 47.9
09:55 1025 30.27 854 25.22 23.2 73.8 40 9 48.2
10:00 1025 30.27 854 25.22 23.6 74.4 39 9 48.2
10:05 1025 30.27 854 25.22 23.6 74.4 39 8.8 47.9
10:10 1025 30.27 854 25.22 24.1 75.4 37 8.8 47.8
10:15 1025 30.27 854 25.22 24.7 76.5 34 7.9 46.2
10:20 1025 30.27 854 25.22 25.2 77.4 33 7.9 46.3
10:25 1025 30.27 854 25.22 25.8 78.4 32 8.3 46.9
10:30 1025 30.27 854 25.22 26.1 79 31 7.8 46.1
10:35 1025 30.27 854 25.22 25.8 78.4 30 7.3 45.1
10:40 1025 30.27 854 25.22 26.2 79.2 30 7.7 45.9
10:45 1025 30.27 854 25.22 26.7 80 29 7.5 45.5
10:50 1025 30.27 854 25.22 26.6 79.9 29 7.4 45.4
10:55 1024 30.24 854 25.22 26.4 79.5 29 7.2 44.9
11:00 1024 30.24 854 25.22 26.7 80 28 7.1 44.8
11:05 1024 30.24 854 25.22 26.2 79.2 28 6.8 44.2
11:10 1024 30.24 854 25.22 26.9 80.5 29 7.4 45.4
11:15 1024 30.24 853 25.19 27.4 81.2 28 7.4 45.4
11:20 1024 30.24 853 25.19 26.9 80.4 28 6.9 44.5
11:25 1024 30.24 853 25.19 27.7 81.8 25 5.9 42.6
11:30 1024 30.24 853 25.19 28.5 83.3 25 6.6 44
11:35 1024 30.24 853 25.19 27.7 81.9 26 6.8 44.2
11:40 1024 30.24 853 25.19 28.1 82.6 25 6.6 43.9
11:45 1024 30.24 853 25.19 28.3 82.9 22 5.1 41.1
11:50 1024 30.24 853 25.19 27.4 81.4 24 5.7 42.2
11:55 1024 30.24 853 25.19 27.2 80.9 25 6 42.8
12:00 1024 30.24 853 25.19 27.7 81.8 23 4.9 40.9
12:05 1024 30.24 853 25.19 28.4 83.1 21 4.5 40.1
12:10 1024 30.24 853 25.19 29.3 84.8 18 2.8 37.1
12:15 1024 30.24 853 25.19 28.9 84.1 19 3.6 38.5
12:20 1024 30.24 853 25.19 29.2 84.5 15 0.1 32.2
12:25 1023 30.21 853 25.19 29.2 84.5 15 0.2 32.4
12:30 1023 30.21 853 25.19 29.4 84.9 17 2 35.5
12:35 1023 30.21 853 25.19 30.2 86.3 16 1.7 35.1
12:40 1023 30.21 852 25.16 29.3 84.7 15 0.6 33.1
12:45 1023 30.21 852 25.16 29.9 85.9 13 -0.8 30.5
12:50 1023 30.21 852 25.16 30.4 86.7 15 1 33.8
12:55 1023 30.21 852 25.16 30.6 87.1 15 1.2 34.2
13:00 1023 30.21 852 25.16 31.2 88.1 13 -0.3 31.5
13:05 1023 30.21 852 25.16 30.4 86.8 15 1 33.8
13:10 1023 30.21 852 25.16 30.9 87.5 14 0.9 33.6
13:15 1023 30.21 852 25.16 31.2 88.1 13 -0.3 31.5
13:20 1023 30.21 852 25.16 30.1 86.1 14 0.4 32.6
13:25 1023 30.21 852 25.16 30.6 87 14 0 32
13:30 1023 30.21 852 25.16 30.5 86.9 14 0.7 33.2
13:35 1023 30.21 852 25.16 30.9 87.7 14 0.7 33.2
13:40 1023 30.21 852 25.16 30.4 86.8 14 0.5 33
13:45 1022 30.18 852 25.16 30.3 86.5 14 0.1 32.2
13:50 1022 30.18 852 25.16 30.5 86.8 14 0.1 32.2
13:55 1022 30.18 852 25.16 31.5 88.6 13 0 32
14:00 1022 30.18 852 25.16 31.2 88.2 13 -0.2 31.7
14:05 1022 30.18 852 25.16 31.8 89.2 13 0.9 33.5
14:10 1022 30.18 852 25.16 32.3 90.2 13 1.2 34.1
14:15 1022 30.18 852 25.16 31.9 89.4 13 0.4 32.7
14:20 1022 30.18 851 25.13 31.5 88.7 13 0.2 32.4
14:25 1022 30.18 851 25.13 31.7 89 13 0.4 32.7
14:30 1022 30.18 851 25.13 31.5 88.7 13 -0 32
14:35 1022 30.18 851 25.13 31.5 88.7 14 0.7 33.3
14:40 1022 30.18 851 25.13 31.4 88.6 13 -0.1 31.8
14:45 1022 30.18 851 25.13 30.9 87.6 14 0.2 32.3
14:50 1022 30.18 851 25.13 30.3 86.6 14 -0.2 31.6
14:55 1022 30.18 851 25.13 30.5 86.8 14 0.3 32.6
15:00 1022 30.18 851 25.13 30.6 87 13 -0.4 31.2
15:05 1022 30.18 851 25.13 30.2 86.4 13 -0.4 31.3
15:10 1022 30.18 851 25.13 30.8 87.4 13 -0.9 30.4
15:15 1022 30.18 851 25.13 31.7 89.1 13 0.3 32.6
15:20 1021 30.15 851 25.13 31.2 88.2 13 0 32.1
15:25 1021 30.15 851 25.13 30.8 87.5 14 0.3 32.5
15:30 1021 30.15 851 25.13 31.1 88.1 13 0 32
15:35 1021 30.15 851 25.13 31.2 88.1 13 0.3 32.6
15:40 1021 30.15 850 25.1 31.5 88.6 13 0.4 32.8
15:45 1021 30.15 850 25.1 31.3 88.3 14 0.5 32.9
15:50 1021 30.15 850 25.1 30.9 87.6 13 -0.2 31.7
15:55 1021 30.15 850 25.1 30.5 86.9 15 0.9 33.6
16:00 1021 30.15 850 25.1 31 87.8 13 0.2 32.3
16:05 1021 30.15 850 25.1 30.7 87.3 14 0.5 32.9
16:10 1021 30.15 850 25.1 30.9 87.6 14 0.6 33.1
16:15 1021 30.15 850 25.1 31.7 89.1 14 0.8 33.5
16:20 1021 30.15 850 25.1 31.1 88 14 0.7 33.3
16:25 1021 30.15 850 25.1 31.7 89 13 0.8 33.4
16:30 1021 30.15 850 25.1 32.1 89.7 13 0.5 33
16:35 1021 30.15 850 25.1 31.4 88.5 14 0.9 33.6
16:40 1021 30.15 850 25.1 31.5 88.6 13 0.6 33.1
16:45 1021 30.15 850 25.1 31.1 87.9 14 0.6 33
16:50 1020 30.12 850 25.1 31.6 88.9 13 0.5 32.9
16:55 1020 30.12 850 25.1 31.1 88 14 0.7 33.3
17:00 1020 30.12 850 25.1 31.2 88.2 13 0.2 32.3
17:05 1020 30.12 850 25.1 31.7 89.1 13 0.5 32.9
17:10 1020 30.12 850 25.1 31.3 88.3 13 0.3 32.6
17:15 1020 30.12 849 25.07 31.4 88.5 14 0.7 33.2
17:20 1020 30.12 849 25.07 31.5 88.7 14 0.9 33.7
17:25 1020 30.12 849 25.07 31.2 88.2 13 -0.1 31.8
17:30 1020 30.12 849 25.07 31 87.8 13 -0 32
17:35 1020 30.12 849 25.07 31.1 88 13 0 32
17:40 1020 30.12 849 25.07 31.1 87.9 13 0.1 32.2
17:45 1020 30.12 849 25.07 31.2 88.2 13 0.4 32.7
17:50 1020 30.12 849 25.07 31.3 88.3 13 0.1 32.1
17:55 1020 30.12 849 25.07 31.4 88.5 13 0.1 32.2
18:00 1020 30.12 849 25.07 31.4 88.5 13 0.5 32.9
18:05 1020 30.12 849 25.07 31.8 89.2 13 0 32
18:10 1020 30.12 849 25.07 31.7 89 13 0.1 32.2
18:15 1020 30.12 849 25.07 31.8 89.2 14 1.5 34.7
18:20 1020 30.12 849 25.07 31 87.8 14 0.6 33.1
18:25 1020 30.12 849 25.07 30.5 87 14 -0.1 31.9
18:30 1020 30.12 849 25.07 30.4 86.8 14 -0 32
18:35 1020 30.12 849 25.07 30.2 86.4 14 -0.1 31.8
18:40 1020 30.12 849 25.07 30.1 86.2 13 -1 30.2
18:45 1020 30.12 849 25.07 30.1 86.1 14 0.5 32.8
18:50 1020 30.12 849 25.07 29.9 85.9 14 -0.1 31.8
18:55 1020 30.12 849 25.07 29.8 85.6 14 0 32.1
19:00 1020 30.12 849 25.07 29.7 85.4 14 -0.3 31.5
19:05 1020 30.12 849 25.07 29.5 85.2 14 -0 32
19:10 1020 30.12 849 25.07 29.4 84.8 15 0.2 32.4
19:15 1020 30.12 849 25.07 29.2 84.6 14 -0.2 31.6
19:20 1020 30.12 849 25.07 29.2 84.5 14 -0.3 31.4
19:25 1020 30.12 849 25.07 29.2 84.6 14 -0.4 31.3
19:30 1020 30.12 849 25.07 29.2 84.5 14 -0.9 30.4
19:35 1020 30.12 849 25.07 28.8 83.9 25 7.1 44.9
19:40 1020 30.12 849 25.07 27.5 81.5 28 7.6 45.7
19:45 1020 30.12 849 25.07 26.7 80.1 29 7.7 45.9
19:50 1020 30.12 849 25.07 26 78.8 30 7.3 45.2
19:55 1020 30.12 849 25.07 25.1 77.2 31 7.2 44.9
20:00 1020 30.12 849 25.07 25.5 77.8 27 5.6 42.1
20:05 1020 30.12 849 25.07 25.9 78.6 27 5.7 42.3
20:10 1020 30.12 849 25.07 25.9 78.5 28 6.2 43.2
20:15 1020 30.12 850 25.1 25.8 78.4 28 6.1 42.9
20:20 1020 30.12 850 25.1 25.8 78.4 28 6 42.7
20:25 1020 30.12 850 25.1 25.8 78.5 27 5.8 42.4
20:30 1020 30.12 849 25.07 25.9 78.7 27 6 42.7
20:35 1020 30.12 849 25.07 25.9 78.6 28 6.2 43.1
20:40 1020 30.12 849 25.07 25.7 78.2 29 6.4 43.6
20:45 1020 30.12 850 25.1 25.5 77.8 29 6.6 43.8
20:50 1021 30.15 850 25.1 25.3 77.5 29 6.5 43.7
20:55 1021 30.15 850 25.1 25.2 77.3 30 6.6 43.9
21:00 1021 30.15 850 25.1 25 77.1 31 7 44.6
21:05 1021 30.15 850 25.1 24.8 76.6 31 6.7 44
21:10 1021 30.15 850 25.1 24.7 76.5 31 6.7 44
21:15 1021 30.15 850 25.1 24.9 76.7 23 2.8 37
21:20 1021 30.15 850 25.1 25.4 77.7 28 5.9 42.7
21:25 1021 30.15 850 25.1 24.8 76.6 33 7.6 45.8
21:30 1021 30.15 850 25.1 24 75.2 34 7.4 45.3
21:35 1021 30.15 850 25.1 23.8 74.8 35 7.4 45.4
21:40 1021 30.15 851 25.13 23.6 74.5 36 7.9 46.1
21:45 1021 30.15 851 25.13 23.4 74.2 35 7.3 45.2
21:50 1021 30.15 851 25.13 23.5 74.3 36 7.6 45.7
21:55 1021 30.15 850 25.1 23.4 74 35 7.2 45
22:00 1021 30.15 850 25.1 23.4 74.1 35 7.4 45.3
22:05 1021 30.15 850 25.1 23.3 74 36 7.4 45.4
22:10 1021 30.15 850 25.1 23.2 73.7 36 7.6 45.7
22:15 1021 30.15 850 25.1 23 73.4 37 7.6 45.7
22:20 1021 30.15 850 25.1 22.9 73.1 37 7.8 46
22:25 1021 30.15 850 25.1 22.6 72.7 38 7.8 46
22:30 1021 30.15 851 25.13 22.6 72.7 38 7.8 46
22:35 1021 30.15 851 25.13 22.5 72.6 39 7.9 46.2
22:40 1021 30.15 851 25.13 22.4 72.3 39 8.1 46.6
22:45 1021 30.15 851 25.13 22.1 71.8 41 8.3 47
22:50 1021 30.15 850 25.1 21.9 71.4 41 8.4 47.1
22:55 1021 30.15 850 25.1 21.7 71 42 8.5 47.2
23:00 1021 30.15 850 25.1 21.5 70.7 43 8.6 47.4
23:05 1021 30.15 851 25.13 21.3 70.3 44 8.6 47.4
23:10 1021 30.15 851 25.13 21 69.9 44 8.6 47.5
23:15 1021 30.15 851 25.13 20.9 69.6 45 8.6 47.4
23:20 1021 30.15 851 25.13 20.8 69.4 45 8.6 47.4
23:25 1021 30.15 851 25.13 20.6 69.1 45 8.6 47.4
23:30 1022 30.18 851 25.13 20.5 68.9 46 8.7 47.6
23:35 1022 30.18 851 25.13 20.3 68.5 47 8.7 47.7
23:40 1021 30.15 851 25.13 20.1 68.2 47 8.7 47.6
23:45 1021 30.15 851 25.13 20 68.1 47 8.6 47.6
23:50 1021 30.15 851 25.13 20 68 47 8.6 47.5
23:55 1021 30.15 850 25.1 19.9 67.9 48 8.8 47.8
24:00 1021 30.15 850 25.1 19.8 67.6 48 8.7 47.7